Time;durP1;ratioP1;P1;durP2;ratioP2;P2;SDS_P1;SDS_P2;PMS_P1;PMS_P2;Temp;Humidity;BMP_temperature;BMP_pressure;BME280_temperature;BME280_humidity;BME280_pressure;Samples;Min_cycle;Max_cycle;Signal;HPM_P1;HPM_P2
2023/12/13 00:01:27;;;;;;;16.92;11.30;;;;;;;;;;6281572;28;20083;-71
2023/12/13 00:04:30;;;;;;;14.60;11.27;;;;;;;;;;6279828;28;20051;-71
2023/12/13 00:07:32;;;;;;;18.80;14.35;;;;;;;;;;6304476;28;20127;-72
2023/12/13 00:10:34;;;;;;;15.65;9.77;;;;;;;;;;6284185;28;20517;-71
2023/12/13 00:13:36;;;;;;;29.35;21.73;;;;;;;;;;6304848;28;20546;-72
2023/12/13 00:16:38;;;;;;;18.63;14.18;;;;;;;;;;6283561;28;20060;-72
2023/12/13 00:19:41;;;;;;;15.10;12.68;;;;;;;;;;6290575;28;20082;-72
2023/12/13 00:22:43;;;;;;;16.85;14.63;;;;;;;;;;6286809;28;20045;-71
2023/12/13 00:25:45;;;;;;;20.92;16.17;;;;;;;;;;6277844;28;20040;-73
2023/12/13 00:28:47;;;;;;;27.48;19.67;;;;;;;;;;6266738;28;20051;-73
2023/12/13 00:31:49;;;;;;;19.02;14.68;;;;;;;;;;6291371;28;20056;-73
2023/12/13 00:34:53;;;;;;;21.45;14.45;;;;;;;;;;6269114;28;20048;-71
2023/12/13 00:37:55;;;;;;;29.00;20.02;;;;;;;;;;6284654;28;20074;-72
2023/12/13 00:40:58;;;;;;;35.70;18.88;;;;;;;;;;6268277;28;20566;-72
2023/12/13 00:44:01;;;;;;;28.25;18.20;;;;;;;;;;6285092;28;20086;-72
2023/12/13 00:47:03;;;;;;;17.85;13.88;;;;;;;;;;6299166;28;20037;-72
2023/12/13 00:50:06;;;;;;;17.15;14.40;;;;;;;;;;6290161;28;20071;-72
2023/12/13 00:53:10;;;;;;;17.55;14.00;;;;;;;;;;6285876;28;20048;-72
2023/12/13 00:56:14;;;;;;;17.33;12.13;;;;;;;;;;6304371;28;20124;-71
2023/12/13 00:59:16;;;;;;;14.00;10.95;;;;;;;;;;6290922;28;20040;-72
2023/12/13 01:02:18;;;;;;;15.32;11.77;;;;;;;;;;6280958;28;20063;-71
2023/12/13 01:05:20;;;;;;;14.23;11.63;;;;;;;;;;6294119;28;20036;-71
2023/12/13 01:08:23;;;;;;;20.02;13.13;;;;;;;;;;6284102;28;20047;-72
2023/12/13 01:11:25;;;;;;;16.90;11.55;;;;;;;;;;6296999;28;20040;-72
2023/12/13 01:14:27;;;;;;;21.45;19.20;;;;;;;;;;6305064;28;20055;-72
2023/12/13 01:17:32;;;;;;;22.02;16.98;;;;;;;;;;6282076;28;20044;-72
2023/12/13 01:20:34;;;;;;;25.13;14.63;;;;;;;;;;6290635;28;20048;-72
2023/12/13 01:23:36;;;;;;;17.23;13.32;;;;;;;;;;6290956;28;20044;-72
2023/12/13 01:26:38;;;;;;;16.40;13.38;;;;;;;;;;6275981;28;20085;-72
2023/12/13 01:29:40;;;;;;;16.13;10.77;;;;;;;;;;6305162;28;20529;-72
2023/12/13 01:32:43;;;;;;;19.15;14.43;;;;;;;;;;6285593;28;20040;-72
2023/12/13 01:35:45;;;;;;;18.08;12.25;;;;;;;;;;6300180;28;20155;-72
2023/12/13 01:38:47;;;;;;;17.92;13.77;;;;;;;;;;6288546;28;20048;-72
2023/12/13 01:41:49;;;;;;;17.02;14.32;;;;;;;;;;6304323;28;20057;-71
2023/12/13 01:44:52;;;;;;;19.40;13.98;;;;;;;;;;6274659;28;20101;-73
2023/12/13 01:47:54;;;;;;;23.60;15.48;;;;;;;;;;6259016;28;20040;-77
2023/12/13 01:50:58;;;;;;;18.05;15.40;;;;;;;;;;6287711;28;20068;-72
2023/12/13 01:54:06;;;;;;;18.05;12.20;;;;;;;;;;6266522;28;20506;-72
2023/12/13 01:57:10;;;;;;;28.40;18.80;;;;;;;;;;6304476;28;20062;-72
2023/12/13 02:00:12;;;;;;;30.17;18.50;;;;;;;;;;6303975;28;20580;-72
2023/12/13 02:03:14;;;;;;;20.73;15.95;;;;;;;;;;6273575;28;20089;-72
2023/12/13 02:06:17;;;;;;;19.17;13.77;;;;;;;;;;6268857;28;20048;-72
2023/12/13 02:09:19;;;;;;;16.95;12.50;;;;;;;;;;6313356;28;20057;-72
2023/12/13 02:12:21;;;;;;;15.55;12.65;;;;;;;;;;6281440;28;20048;-73
2023/12/13 02:15:23;;;;;;;15.50;10.60;;;;;;;;;;6288718;28;20051;-72
2023/12/13 02:18:27;;;;;;;11.85;7.78;;;;;;;;;;6272286;28;20357;-72
2023/12/13 02:21:30;;;;;;;11.45;7.63;;;;;;;;;;6271737;28;20907;-72
2023/12/13 02:24:32;;;;;;;13.07;11.73;;;;;;;;;;6279155;28;20051;-73
2023/12/13 02:27:34;;;;;;;19.35;11.50;;;;;;;;;;6270129;28;20035;-71
2023/12/13 02:30:37;;;;;;;14.38;10.75;;;;;;;;;;6286633;28;20052;-72
2023/12/13 02:33:40;;;;;;;15.77;11.63;;;;;;;;;;6301277;28;20885;-72
2023/12/13 02:36:45;;;;;;;13.00;11.10;;;;;;;;;;6295030;28;20507;-72
2023/12/13 02:39:47;;;;;;;11.63;9.93;;;;;;;;;;6297390;28;20070;-72
2023/12/13 02:42:49;;;;;;;14.18;11.60;;;;;;;;;;6281428;28;20040;-73
2023/12/13 02:45:51;;;;;;;13.75;10.57;;;;;;;;;;6285453;28;20055;-73
2023/12/13 02:48:53;;;;;;;11.73;9.98;;;;;;;;;;6302037;28;20046;-73
2023/12/13 02:51:59;;;;;;;9.77;7.25;;;;;;;;;;6286606;28;20045;-72
2023/12/13 02:55:01;;;;;;;9.85;8.60;;;;;;;;;;6290298;28;20036;-71
2023/12/13 02:58:04;;;;;;;10.85;8.85;;;;;;;;;;6320557;28;20047;-72
2023/12/13 03:01:06;;;;;;;11.82;9.73;;;;;;;;;;6264011;28;20047;-73
2023/12/13 03:04:08;;;;;;;11.55;8.95;;;;;;;;;;6279160;28;20045;-73
2023/12/13 03:07:10;;;;;;;13.88;11.10;;;;;;;;;;6274180;28;20040;-73
2023/12/13 03:10:14;;;;;;;9.20;6.90;;;;;;;;;;6291109;28;20050;-72
2023/12/13 03:13:16;;;;;;;12.73;9.80;;;;;;;;;;6265227;28;20033;-73
2023/12/13 03:16:18;;;;;;;11.15;9.15;;;;;;;;;;6270422;28;20044;-72
2023/12/13 03:19:25;;;;;;;10.63;8.23;;;;;;;;;;6292805;28;20040;-71
2023/12/13 03:22:27;;;;;;;13.15;8.75;;;;;;;;;;6298651;28;20053;-72
2023/12/13 03:25:29;;;;;;;10.75;9.70;;;;;;;;;;6291206;28;20049;-72
2023/12/13 03:28:31;;;;;;;11.13;8.02;;;;;;;;;;6300199;28;20112;-72
2023/12/13 03:31:33;;;;;;;9.93;8.50;;;;;;;;;;6299294;28;20059;-71
2023/12/13 03:34:35;;;;;;;18.65;14.23;;;;;;;;;;6292761;28;20150;-71
2023/12/13 03:37:38;;;;;;;16.13;11.20;;;;;;;;;;6298023;28;20041;-73
2023/12/13 03:40:41;;;;;;;47.58;20.75;;;;;;;;;;6298924;28;20846;-72
2023/12/13 03:43:43;;;;;;;24.83;15.82;;;;;;;;;;6275503;28;20597;-73
2023/12/13 03:46:46;;;;;;;22.85;14.98;;;;;;;;;;6274996;28;20557;-72
2023/12/13 03:49:48;;;;;;;47.65;23.15;;;;;;;;;;6263919;28;20060;-71
2023/12/13 03:52:50;;;;;;;16.85;13.35;;;;;;;;;;6295153;28;20059;-72
2023/12/13 03:55:52;;;;;;;20.42;12.50;;;;;;;;;;6292869;28;20044;-72
2023/12/13 03:58:55;;;;;;;12.80;10.23;;;;;;;;;;6302788;28;20063;-72
2023/12/13 04:01:57;;;;;;;13.07;10.20;;;;;;;;;;6302016;28;20047;-71
2023/12/13 04:04:59;;;;;;;14.35;10.48;;;;;;;;;;6280940;28;20048;-73
2023/12/13 04:08:02;;;;;;;15.23;13.45;;;;;;;;;;6284340;28;20538;-71
2023/12/13 04:11:04;;;;;;;14.40;11.35;;;;;;;;;;6301312;28;20057;-72
2023/12/13 04:14:06;;;;;;;18.75;13.23;;;;;;;;;;6304605;28;20051;-71
2023/12/13 04:17:08;;;;;;;17.60;14.38;;;;;;;;;;6284647;28;20040;-73
2023/12/13 04:20:11;;;;;;;18.13;14.52;;;;;;;;;;6284199;28;20145;-71
2023/12/13 04:23:13;;;;;;;17.30;12.32;;;;;;;;;;6301180;28;20044;-72
2023/12/13 04:26:15;;;;;;;18.13;13.02;;;;;;;;;;6303898;28;20518;-72
2023/12/13 04:29:17;;;;;;;16.95;13.57;;;;;;;;;;6267278;28;20048;-73
2023/12/13 04:32:20;;;;;;;14.88;13.02;;;;;;;;;;6289252;28;20280;-72
2023/12/13 04:35:22;;;;;;;15.50;11.23;;;;;;;;;;6280884;28;20048;-72
2023/12/13 04:38:24;;;;;;;18.52;12.65;;;;;;;;;;6271847;28;20055;-72
2023/12/13 04:41:26;;;;;;;16.20;12.40;;;;;;;;;;6285837;28;20514;-72
2023/12/13 04:44:28;;;;;;;15.60;11.95;;;;;;;;;;6294116;28;20056;-72
2023/12/13 04:47:30;;;;;;;15.05;12.32;;;;;;;;;;6270236;28;20139;-72
2023/12/13 04:50:33;;;;;;;13.90;11.98;;;;;;;;;;6282932;28;20049;-72
2023/12/13 04:53:35;;;;;;;14.55;12.60;;;;;;;;;;6279840;28;20056;-72
2023/12/13 04:56:37;;;;;;;16.67;12.68;;;;;;;;;;6300331;28;20048;-72
2023/12/13 04:59:39;;;;;;;11.77;9.45;;;;;;;;;;6263188;28;20044;-72
2023/12/13 05:02:41;;;;;;;25.23;14.57;;;;;;;;;;6264017;28;20044;-72
2023/12/13 05:05:43;;;;;;;16.15;13.88;;;;;;;;;;6298067;28;20557;-72
2023/12/13 05:08:49;;;;;;;17.80;15.57;;;;;;;;;;6300384;28;20072;-72
2023/12/13 05:11:51;;;;;;;;;;;;;;;;;;6281334;28;20438;-72
2023/12/13 05:14:53;;;;;;;21.65;17.20;;;;;;;;;;6275612;28;19925;-72
2023/12/13 05:17:56;;;;;;;22.92;16.98;;;;;;;;;;6281572;28;20046;-71
2023/12/13 05:20:58;;;;;;;19.40;9.60;;;;;;;;;;6291816;28;20446;-72
2023/12/13 05:24:00;;;;;;;24.05;14.60;;;;;;;;;;6298024;28;20055;-72
2023/12/13 05:27:02;;;;;;;17.60;13.90;;;;;;;;;;6270453;28;20040;-72
2023/12/13 05:30:05;;;;;;;16.45;13.60;;;;;;;;;;6277628;28;20055;-72
2023/12/13 05:33:08;;;;;;;19.75;11.80;;;;;;;;;;6299092;28;20071;-70
2023/12/13 05:36:11;;;;;;;16.60;10.68;;;;;;;;;;6281544;28;20096;-72
2023/12/13 05:39:13;;;;;;;9.13;8.05;;;;;;;;;;6269926;28;20040;-72
2023/12/13 05:42:15;;;;;;;7.25;6.60;;;;;;;;;;6298654;28;20101;-72
2023/12/13 05:45:17;;;;;;;7.32;6.07;;;;;;;;;;6289403;28;20581;-72
2023/12/13 05:48:20;;;;;;;6.78;6.13;;;;;;;;;;6282651;28;20108;-72
2023/12/13 05:51:22;;;;;;;10.57;7.90;;;;;;;;;;6281090;28;20055;-72
2023/12/13 05:54:24;;;;;;;11.88;7.32;;;;;;;;;;6282759;28;20047;-72
2023/12/13 05:57:26;;;;;;;12.00;8.75;;;;;;;;;;6283609;28;20086;-73
2023/12/13 06:00:30;;;;;;;15.65;8.65;;;;;;;;;;6294352;28;20584;-72
2023/12/13 06:03:32;;;;;;;18.25;14.48;;;;;;;;;;6294925;28;20050;-71
2023/12/13 06:06:34;;;;;;;20.27;15.20;;;;;;;;;;6288699;28;20134;-71
2023/12/13 06:09:37;;;;;;;22.00;13.30;;;;;;;;;;6287685;28;20134;-72
2023/12/13 06:12:39;;;;;;;24.30;16.88;;;;;;;;;;6299375;28;20043;-72
2023/12/13 06:15:45;;;;;;;36.75;23.27;;;;;;;;;;6294051;28;20131;-71
2023/12/13 06:18:48;;;;;;;20.63;14.35;;;;;;;;;;6280308;28;20783;-71
2023/12/13 06:21:50;;;;;;;17.33;12.55;;;;;;;;;;6277944;28;20097;-72
2023/12/13 06:24:56;;;;;;;24.80;18.73;;;;;;;;;;6276215;28;20052;-72
2023/12/13 06:27:58;;;;;;;23.70;17.98;;;;;;;;;;6262591;28;20040;-72
2023/12/13 06:31:00;;;;;;;21.80;15.50;;;;;;;;;;6275959;28;20047;-71
2023/12/13 06:34:03;;;;;;;24.10;19.05;;;;;;;;;;6264452;28;20133;-72
2023/12/13 06:37:06;;;;;;;25.77;18.83;;;;;;;;;;6281676;28;20089;-73
2023/12/13 06:40:08;;;;;;;29.98;23.10;;;;;;;;;;6280936;28;20085;-71
2023/12/13 06:43:10;;;;;;;32.72;23.10;;;;;;;;;;6301648;28;20051;-72
2023/12/13 06:46:12;;;;;;;31.08;23.35;;;;;;;;;;6296193;28;20134;-72
2023/12/13 06:49:14;;;;;;;30.88;22.60;;;;;;;;;;6299370;28;20048;-72
2023/12/13 06:52:17;;;;;;;37.20;25.55;;;;;;;;;;6267697;28;20079;-72
2023/12/13 06:55:19;;;;;;;34.67;26.65;;;;;;;;;;6300485;28;20044;-71
2023/12/13 06:58:22;;;;;;;37.47;25.33;;;;;;;;;;6287287;28;20123;-72
2023/12/13 07:01:24;;;;;;;23.75;18.23;;;;;;;;;;6285895;28;20036;-73
2023/12/13 07:04:26;;;;;;;23.95;18.73;;;;;;;;;;6289642;28;20040;-72
2023/12/13 07:07:29;;;;;;;34.15;28.35;;;;;;;;;;6274607;28;20774;-73
2023/12/13 07:10:32;;;;;;;16.95;13.68;;;;;;;;;;6260009;28;20063;-72
2023/12/13 07:13:34;;;;;;;39.97;27.15;;;;;;;;;;6284616;28;20093;-72
2023/12/13 07:16:36;;;;;;;24.05;17.65;;;;;;;;;;6301365;28;20205;-72
2023/12/13 07:19:39;;;;;;;24.70;16.30;;;;;;;;;;6290818;28;20077;-73
2023/12/13 07:22:41;;;;;;;27.05;22.15;;;;;;;;;;6276213;28;20053;-73
2023/12/13 07:25:43;;;;;;;21.15;18.90;;;;;;;;;;6287241;28;20060;-73
2023/12/13 07:28:45;;;;;;;23.23;15.82;;;;;;;;;;6283159;28;20079;-72
2023/12/13 07:31:47;;;;;;;23.77;18.10;;;;;;;;;;6283704;28;20048;-73
2023/12/13 07:34:51;;;;;;;25.88;19.15;;;;;;;;;;6266775;28;20046;-72
2023/12/13 07:37:55;;;;;;;31.00;20.80;;;;;;;;;;6294194;28;20067;-72
2023/12/13 07:40:57;;;;;;;32.30;23.92;;;;;;;;;;6308970;28;20036;-72
2023/12/13 07:43:59;;;;;;;34.60;22.55;;;;;;;;;;6268478;28;20048;-72
2023/12/13 07:47:02;;;;;;;34.10;24.48;;;;;;;;;;6291039;28;20047;-73
2023/12/13 07:50:06;;;;;;;38.25;29.05;;;;;;;;;;6296554;28;20142;-73
2023/12/13 07:53:08;;;;;;;34.08;24.90;;;;;;;;;;6297138;28;20052;-72
2023/12/13 07:56:10;;;;;;;36.00;19.17;;;;;;;;;;6295633;28;20719;-73
2023/12/13 07:59:21;;;;;;;;;;;;;;;;;;6287865;28;20048;-72
2023/12/13 08:02:24;;;;;;;33.60;24.50;;;;;;;;;;6286330;28;20793;-72
2023/12/13 08:05:33;;;;;;;39.97;26.05;;;;;;;;;;6307308;28;20052;-73
2023/12/13 08:08:35;;;;;;;42.88;27.88;;;;;;;;;;6309440;28;20041;-72
2023/12/13 08:11:38;;;;;;;38.03;29.17;;;;;;;;;;6304083;28;20044;-72
2023/12/13 08:14:41;;;;;;;24.13;16.77;;;;;;;;;;6289476;28;20087;-73
2023/12/13 08:17:43;;;;;;;12.00;9.80;;;;;;;;;;6292929;28;20036;-72
2023/12/13 08:20:46;;;;;;;14.93;10.32;;;;;;;;;;6284318;28;20036;-73
2023/12/13 08:23:48;;;;;;;14.10;10.48;;;;;;;;;;6299910;28;20044;-73
2023/12/13 08:26:50;;;;;;;11.70;10.50;;;;;;;;;;6302193;28;20044;-73
2023/12/13 08:29:52;;;;;;;11.20;9.05;;;;;;;;;;6267792;28;20067;-72
2023/12/13 08:32:55;;;;;;;9.73;8.73;;;;;;;;;;6284010;28;20036;-72
2023/12/13 08:35:59;;;;;;;12.75;11.45;;;;;;;;;;6293651;28;20037;-72
2023/12/13 08:39:02;;;;;;;10.02;8.82;;;;;;;;;;6283818;28;20094;-72
2023/12/13 08:42:04;;;;;;;15.55;12.32;;;;;;;;;;6299830;28;20052;-73
2023/12/13 08:45:07;;;;;;;16.92;11.40;;;;;;;;;;6267314;28;20075;-72
2023/12/13 08:48:12;;;;;;;12.88;8.52;;;;;;;;;;6295544;28;20484;-72
2023/12/13 08:51:15;;;;;;;17.13;13.07;;;;;;;;;;6277558;28;20060;-73
2023/12/13 08:54:17;;;;;;;21.95;15.10;;;;;;;;;;6303723;28;20087;-72
2023/12/13 08:57:26;;;;;;;21.85;13.43;;;;;;;;;;6314468;27;20094;-71
2023/12/13 09:00:28;;;;;;;20.10;13.68;;;;;;;;;;6254809;28;20538;-73
2023/12/13 09:03:31;;;;;;;18.55;16.58;;;;;;;;;;6280033;28;20052;-73
2023/12/13 09:06:33;;;;;;;19.77;13.52;;;;;;;;;;6276283;28;20043;-73
2023/12/13 09:09:38;;;;;;;17.02;10.05;;;;;;;;;;6298750;28;20676;-72
2023/12/13 09:12:40;;;;;;;12.18;10.52;;;;;;;;;;6282615;28;20055;-72
2023/12/13 09:15:42;;;;;;;15.15;10.95;;;;;;;;;;6286909;28;20036;-73
2023/12/13 09:18:45;;;;;;;10.63;6.90;;;;;;;;;;6270357;28;20629;-73
2023/12/13 09:21:50;;;;;;;16.95;10.65;;;;;;;;;;6316057;28;20056;-74
2023/12/13 09:24:53;;;;;;;30.52;16.85;;;;;;;;;;6285792;28;20517;-73
2023/12/13 09:27:56;;;;;;;44.08;24.95;;;;;;;;;;6303124;28;20036;-73
2023/12/13 09:31:00;;;;;;;13.02;9.65;;;;;;;;;;6289667;28;20141;-73
2023/12/13 09:34:02;;;;;;;18.45;11.90;;;;;;;;;;6278236;28;20744;-73
2023/12/13 09:37:06;;;;;;;31.50;15.93;;;;;;;;;;6299117;28;20036;-73
2023/12/13 09:40:16;;;;;;;26.73;14.07;;;;;;;;;;6285331;28;20055;-73
2023/12/13 09:43:22;;;;;;;17.30;9.45;;;;;;;;;;6289614;28;20399;-73
2023/12/13 09:46:28;;;;;;;31.80;15.90;;;;;;;;;;6273464;28;20056;-72
2023/12/13 09:49:34;;;;;;;19.58;11.52;;;;;;;;;;6298144;28;20047;-73
2023/12/13 09:52:41;;;;;;;8.07;6.38;;;;;;;;;;6269350;28;20048;-73
2023/12/13 09:55:52;;;;;;;10.48;6.72;;;;;;;;;;6297993;28;20036;-73
2023/12/13 09:58:54;;;;;;;11.15;6.85;;;;;;;;;;6289684;28;20052;-73
2023/12/13 10:01:59;;;;;;;17.25;9.40;;;;;;;;;;6260952;28;20441;-73
2023/12/13 10:05:05;;;;;;;15.00;7.20;;;;;;;;;;6289841;28;20040;-72
2023/12/13 10:08:09;;;;;;;19.13;10.73;;;;;;;;;;6302581;28;20041;-72
2023/12/13 10:11:11;;;;;;;8.98;7.63;;;;;;;;;;6300520;28;20040;-72
2023/12/13 10:14:14;;;;;;;12.52;5.50;;;;;;;;;;6295182;28;20778;-72
2023/12/13 10:17:22;;;;;;;4.95;2.78;;;;;;;;;;6265086;28;20477;-73
2023/12/13 10:20:26;;;;;;;9.80;6.07;;;;;;;;;;6255411;28;20047;-72
2023/12/13 10:23:28;;;;;;;7.15;5.15;;;;;;;;;;6282927;28;20082;-72
2023/12/13 10:26:38;;;;;;;13.88;11.25;;;;;;;;;;6281803;28;20056;-72
2023/12/13 10:29:40;;;;;;;8.63;5.38;;;;;;;;;;6282288;28;20126;-72
2023/12/13 10:32:42;;;;;;;9.85;6.68;;;;;;;;;;6294634;28;20055;-73
2023/12/13 10:35:46;;;;;;;10.23;5.95;;;;;;;;;;6277729;28;20559;-73
2023/12/13 10:38:52;;;;;;;9.98;7.03;;;;;;;;;;6300131;28;20032;-72
2023/12/13 10:41:56;;;;;;;10.38;7.53;;;;;;;;;;6266550;28;20052;-72
2023/12/13 10:45:00;;;;;;;7.28;6.32;;;;;;;;;;6260663;28;20230;-72
2023/12/13 10:48:04;;;;;;;6.30;5.70;;;;;;;;;;6280794;28;20595;-71
2023/12/13 10:51:07;;;;;;;7.38;5.28;;;;;;;;;;6263804;28;20048;-72
2023/12/13 10:54:10;;;;;;;5.65;5.03;;;;;;;;;;6276636;28;20052;-73
2023/12/13 10:57:12;;;;;;;7.78;5.75;;;;;;;;;;6260681;28;20052;-71
2023/12/13 11:00:15;;;;;;;7.20;6.47;;;;;;;;;;6297380;28;20728;-72
2023/12/13 11:03:23;;;;;;;6.30;5.70;;;;;;;;;;6277144;28;20100;-72
2023/12/13 11:06:26;;;;;;;6.40;5.15;;;;;;;;;;6283635;28;20181;-72
2023/12/13 11:09:29;;;;;;;6.47;5.03;;;;;;;;;;6303515;28;20047;-72
2023/12/13 11:12:31;;;;;;;5.75;5.15;;;;;;;;;;6282625;28;20044;-72
2023/12/13 11:15:42;;;;;;;6.68;5.22;;;;;;;;;;6284478;28;20111;-72
2023/12/13 11:18:45;;;;;;;6.85;5.65;;;;;;;;;;6285073;28;20032;-72
2023/12/13 11:21:50;;;;;;;5.40;4.15;;;;;;;;;;6296584;28;20072;-73
2023/12/13 11:25:06;;;;;;;5.78;5.22;;;;;;;;;;6270500;28;20056;-72
2023/12/13 11:28:20;;;;;;;5.38;4.88;;;;;;;;;;6302468;28;20078;-72
2023/12/13 11:31:24;;;;;;;7.93;4.03;;;;;;;;;;6282229;28;20707;-71
2023/12/13 11:34:44;;;;;;;6.57;5.95;;;;;;;;;;6270883;28;20048;-72
2023/12/13 11:37:50;;;;;;;5.72;5.22;;;;;;;;;;6255265;28;20044;-74
2023/12/13 11:40:53;;;;;;;6.75;6.15;;;;;;;;;;6309425;28;20580;-73
2023/12/13 11:43:55;;;;;;;4.47;3.90;;;;;;;;;;6283487;28;20173;-72
2023/12/13 11:47:05;;;;;;;4.22;3.83;;;;;;;;;;6298440;28;20044;-72
2023/12/13 11:50:10;;;;;;;3.83;2.00;;;;;;;;;;6321728;27;20434;-72
2023/12/13 11:53:12;;;;;;;5.30;4.53;;;;;;;;;;6301004;28;20082;-72
2023/12/13 11:56:18;;;;;;;7.20;5.35;;;;;;;;;;6287344;28;20044;-72
2023/12/13 11:59:20;;;;;;;6.15;5.55;;;;;;;;;;6274869;28;20127;-72
2023/12/13 12:02:22;;;;;;;4.20;1.98;;;;;;;;;;6279477;28;20438;-73
2023/12/13 12:05:24;;;;;;;7.68;4.00;;;;;;;;;;6284737;28;20060;-72
2023/12/13 12:08:28;;;;;;;5.20;4.63;;;;;;;;;;6271261;28;20036;-73
2023/12/13 12:11:30;;;;;;;5.85;4.75;;;;;;;;;;6304360;28;20052;-72
2023/12/13 12:14:33;;;;;;;9.52;8.65;;;;;;;;;;6256562;28;20043;-72
2023/12/13 12:17:36;;;;;;;7.03;5.68;;;;;;;;;;6289385;28;20092;-73
2023/12/13 12:20:41;;;;;;;7.32;5.47;;;;;;;;;;6270129;28;20051;-72
2023/12/13 12:23:47;;;;;;;6.47;3.28;;;;;;;;;;6289949;28;20538;-73
2023/12/13 12:26:50;;;;;;;12.77;6.55;;;;;;;;;;6288099;28;20048;-73
2023/12/13 12:29:52;;;;;;;7.68;6.97;;;;;;;;;;6273953;28;20032;-73
2023/12/13 12:32:55;;;;;;;7.93;6.18;;;;;;;;;;6287823;28;20527;-73
2023/12/13 12:35:58;;;;;;;8.15;7.30;;;;;;;;;;6274646;28;20070;-73
2023/12/13 12:39:00;;;;;;;7.38;6.55;;;;;;;;;;6300499;28;20181;-72
2023/12/13 12:42:03;;;;;;;10.10;7.03;;;;;;;;;;6297689;28;20090;-73
2023/12/13 12:45:06;;;;;;;8.27;6.63;;;;;;;;;;6299667;28;20127;-73
2023/12/13 12:48:09;;;;;;;6.32;5.72;;;;;;;;;;6286684;28;20041;-73
2023/12/13 12:51:11;;;;;;;6.35;5.75;;;;;;;;;;6274536;28;20721;-74
2023/12/13 12:54:13;;;;;;;5.97;5.43;;;;;;;;;;6271650;28;20044;-73
2023/12/13 12:57:17;;;;;;;7.00;6.28;;;;;;;;;;6301481;28;20048;-73
2023/12/13 13:00:20;;;;;;;7.40;6.60;;;;;;;;;;6279956;28;20059;-73
2023/12/13 13:03:22;;;;;;;6.00;5.00;;;;;;;;;;6301269;28;20202;-73
2023/12/13 13:06:24;;;;;;;4.78;4.07;;;;;;;;;;6270651;28;20071;-74
2023/12/13 13:09:27;;;;;;;7.07;6.38;;;;;;;;;;6271573;28;20665;-72
2023/12/13 13:12:30;;;;;;;4.47;3.58;;;;;;;;;;6280105;28;20850;-74
2023/12/13 13:15:32;;;;;;;6.20;4.60;;;;;;;;;;6293477;28;20063;-74
2023/12/13 13:18:35;;;;;;;5.60;2.95;;;;;;;;;;6290242;28;20436;-73
2023/12/13 13:21:37;;;;;;;5.50;3.47;;;;;;;;;;6285935;28;20729;-74
2023/12/13 13:24:40;;;;;;;5.68;4.45;;;;;;;;;;6281914;28;20135;-73
2023/12/13 13:27:44;;;;;;;4.88;1.85;;;;;;;;;;6305343;28;20439;-73
2023/12/13 13:30:46;;;;;;;5.50;4.25;;;;;;;;;;6255343;28;20827;-74
2023/12/13 13:33:50;;;;;;;3.97;2.15;;;;;;;;;;6286339;28;20474;-74
2023/12/13 13:36:52;;;;;;;5.05;3.90;;;;;;;;;;6303461;28;20151;-73
2023/12/13 13:39:54;;;;;;;5.60;4.70;;;;;;;;;;6303187;28;20070;-73
2023/12/13 13:42:58;;;;;;;8.45;7.80;;;;;;;;;;6298645;28;20124;-73
2023/12/13 13:46:01;;;;;;;5.35;4.65;;;;;;;;;;6297067;28;20120;-72
2023/12/13 13:49:03;;;;;;;4.97;4.45;;;;;;;;;;6297725;28;20069;-73
2023/12/13 13:52:06;;;;;;;3.78;2.40;;;;;;;;;;6286410;28;20450;-71
2023/12/13 13:55:09;;;;;;;5.30;4.57;;;;;;;;;;6292044;28;20051;-72
2023/12/13 13:58:16;;;;;;;6.38;4.45;;;;;;;;;;6290069;28;20071;-72
2023/12/13 14:01:18;;;;;;;5.65;5.03;;;;;;;;;;6292652;28;20056;-72
2023/12/13 14:04:21;;;;;;;6.03;4.20;;;;;;;;;;6264970;28;20052;-73
2023/12/13 14:07:24;;;;;;;7.15;5.88;;;;;;;;;;6289479;28;20194;-72
2023/12/13 14:10:26;;;;;;;5.63;5.13;;;;;;;;;;6277025;28;20043;-73
2023/12/13 14:13:28;;;;;;;4.90;4.15;;;;;;;;;;6280820;28;20048;-74
2023/12/13 14:16:31;;;;;;;5.25;4.82;;;;;;;;;;6295225;28;20048;-71
2023/12/13 14:19:33;;;;;;;7.15;6.38;;;;;;;;;;6292973;28;20043;-72
2023/12/13 14:22:36;;;;;;;6.38;5.30;;;;;;;;;;6294763;28;20046;-71
2023/12/13 14:25:38;;;;;;;8.07;6.35;;;;;;;;;;6309484;28;20142;-72
2023/12/13 14:28:42;;;;;;;5.63;4.68;;;;;;;;;;6289462;28;20037;-71
2023/12/13 14:31:44;;;;;;;6.70;6.03;;;;;;;;;;6292516;28;20653;-71
2023/12/13 14:34:46;;;;;;;5.70;2.65;;;;;;;;;;6285143;28;20903;-71
2023/12/13 14:37:48;;;;;;;6.35;5.38;;;;;;;;;;6281485;28;20060;-71
2023/12/13 14:40:50;;;;;;;6.30;4.82;;;;;;;;;;6286072;28;20573;-72
2023/12/13 14:43:53;;;;;;;5.97;5.40;;;;;;;;;;6301342;28;20040;-74
2023/12/13 14:46:55;;;;;;;8.73;5.80;;;;;;;;;;6260161;28;20063;-72
2023/12/13 14:49:57;;;;;;;8.73;5.70;;;;;;;;;;6284049;28;20032;-72
2023/12/13 14:53:00;;;;;;;7.45;6.18;;;;;;;;;;6314304;28;20049;-71
2023/12/13 14:56:04;;;;;;;6.75;6.13;;;;;;;;;;6282699;28;20055;-73
2023/12/13 14:59:06;;;;;;;9.38;8.43;;;;;;;;;;6288342;28;20032;-72
2023/12/13 15:02:08;;;;;;;6.80;5.78;;;;;;;;;;6296530;28;20044;-73
2023/12/13 15:05:12;;;;;;;7.32;6.60;;;;;;;;;;6283336;28;20509;-72
2023/12/13 15:08:17;;;;;;;5.03;3.08;;;;;;;;;;6293945;28;20612;-72
2023/12/13 15:11:19;;;;;;;8.73;7.53;;;;;;;;;;6306302;28;20048;-75
2023/12/13 15:14:23;;;;;;;9.25;8.27;;;;;;;;;;6268378;28;20134;-73
2023/12/13 15:17:26;;;;;;;6.63;5.93;;;;;;;;;;6266069;28;20058;-74
2023/12/13 15:20:30;;;;;;;9.23;7.90;;;;;;;;;;6300589;28;20044;-72
2023/12/13 15:23:32;;;;;;;10.15;9.05;;;;;;;;;;6271579;28;20052;-76
2023/12/13 15:26:34;;;;;;;8.25;7.45;;;;;;;;;;6261851;28;20534;-73
2023/12/13 15:29:36;;;;;;;7.40;3.70;;;;;;;;;;6277544;28;20416;-73
2023/12/13 15:32:43;;;;;;;8.82;7.78;;;;;;;;;;6299933;28;20059;-73
2023/12/13 15:35:46;;;;;;;8.73;6.68;;;;;;;;;;6278535;28;20045;-73
2023/12/13 15:38:51;;;;;;;17.98;8.50;;;;;;;;;;6282889;28;20054;-73
2023/12/13 15:41:54;;;;;;;8.00;5.80;;;;;;;;;;6280756;28;20474;-76
2023/12/13 15:44:56;;;;;;;9.35;4.30;;;;;;;;;;6290421;28;20617;-74
2023/12/13 15:47:59;;;;;;;8.68;6.80;;;;;;;;;;6282217;28;20071;-72
2023/12/13 15:51:02;;;;;;;9.68;8.60;;;;;;;;;;6318054;28;20036;-73
2023/12/13 15:54:04;;;;;;;11.60;9.40;;;;;;;;;;6284117;28;20056;-72
2023/12/13 15:57:06;;;;;;;9.35;7.75;;;;;;;;;;6303922;28;20036;-71
2023/12/13 16:00:09;;;;;;;9.60;8.30;;;;;;;;;;6253147;28;20049;-73
2023/12/13 16:03:14;;;;;;;;;;;;;;;;;;6287787;28;20035;-73
2023/12/13 16:06:16;;;;;;;8.13;7.43;;;;;;;;;;6304560;28;19924;-72
2023/12/13 16:09:21;;;;;;;12.93;9.57;;;;;;;;;;6307294;28;20048;-71
2023/12/13 16:12:23;;;;;;;;;;;;;;;;;;6287590;28;20045;-73
2023/12/13 16:15:27;;;;;;;9.30;8.38;;;;;;;;;;6277635;28;19980;-73
2023/12/13 16:18:29;;;;;;;12.65;8.68;;;;;;;;;;6301615;28;20182;-72
2023/12/13 16:21:33;;;;;;;11.07;8.18;;;;;;;;;;6280323;28;20719;-73
2023/12/13 16:24:36;;;;;;;16.45;10.63;;;;;;;;;;6283865;28;20041;-72
2023/12/13 16:27:38;;;;;;;13.73;9.75;;;;;;;;;;6297948;28;20082;-73
2023/12/13 16:30:40;;;;;;;12.93;10.05;;;;;;;;;;6307833;28;20051;-73
2023/12/13 16:33:43;;;;;;;14.65;7.40;;;;;;;;;;6309334;28;20589;-72
2023/12/13 16:36:45;;;;;;;15.38;13.43;;;;;;;;;;6292383;28;20096;-73
2023/12/13 16:39:51;;;;;;;7.30;4.63;;;;;;;;;;6284813;28;20678;-73
2023/12/13 16:42:55;;;;;;;8.50;6.90;;;;;;;;;;6249591;28;20148;-74
2023/12/13 16:46:00;;;;;;;7.40;6.70;;;;;;;;;;6270119;28;20179;-72
2023/12/13 16:49:03;;;;;;;6.90;5.85;;;;;;;;;;6272979;28;20036;-74
2023/12/13 16:52:05;;;;;;;6.70;5.82;;;;;;;;;;6300752;28;20186;-74
2023/12/13 16:55:08;;;;;;;7.03;6.32;;;;;;;;;;6296642;28;20047;-73
2023/12/13 16:58:10;;;;;;;7.53;6.82;;;;;;;;;;6291127;28;20048;-73
2023/12/13 17:01:13;;;;;;;6.80;6.15;;;;;;;;;;6297040;28;20044;-73
2023/12/13 17:04:15;;;;;;;9.68;7.68;;;;;;;;;;6283335;28;20044;-74
2023/12/13 17:07:22;;;;;;;7.75;6.68;;;;;;;;;;6296144;28;20040;-74
2023/12/13 17:10:30;;;;;;;7.63;6.82;;;;;;;;;;6305179;28;20629;-73
2023/12/13 17:13:32;;;;;;;8.32;7.50;;;;;;;;;;6306765;28;20117;-74
2023/12/13 17:16:34;;;;;;;7.63;5.85;;;;;;;;;;6259470;28;20080;-74
2023/12/13 17:19:39;;;;;;;9.10;8.40;;;;;;;;;;6274306;28;20044;-73
2023/12/13 17:22:42;;;;;;;6.82;6.13;;;;;;;;;;6287265;28;20051;-73
2023/12/13 17:25:45;;;;;;;7.60;5.40;;;;;;;;;;6316818;27;20044;-73
2023/12/13 17:28:47;;;;;;;6.28;5.65;;;;;;;;;;6283845;28;20134;-74
2023/12/13 17:31:49;;;;;;;5.85;5.25;;;;;;;;;;6273750;28;20130;-73
2023/12/13 17:34:52;;;;;;;9.05;6.78;;;;;;;;;;6251835;28;20511;-74
2023/12/13 17:37:57;;;;;;;7.78;7.07;;;;;;;;;;6272016;28;20120;-73
2023/12/13 17:41:00;;;;;;;8.88;7.00;;;;;;;;;;6301348;28;20074;-74
2023/12/13 17:44:02;;;;;;;8.18;7.47;;;;;;;;;;6301279;28;20139;-74
2023/12/13 17:47:06;;;;;;;7.72;6.70;;;;;;;;;;6300958;28;20714;-73
2023/12/13 17:50:08;;;;;;;8.13;6.70;;;;;;;;;;6318100;27;20101;-74
2023/12/13 17:53:11;;;;;;;7.43;6.47;;;;;;;;;;6289187;28;20055;-74
2023/12/13 17:56:16;;;;;;;8.48;7.65;;;;;;;;;;6270971;28;20044;-74
2023/12/13 17:59:18;;;;;;;7.53;6.57;;;;;;;;;;6295607;28;20622;-73
2023/12/13 18:02:20;;;;;;;8.32;7.45;;;;;;;;;;6293636;28;20037;-73